createdAt,value
2023-01-11T00:00:04.727Z,1004.65
2023-01-11T00:01:04.898Z,1004.67
2023-01-11T00:02:04.725Z,1004.74
2023-01-11T00:03:04.678Z,1004.71
2023-01-11T00:04:04.691Z,1004.77
2023-01-11T00:05:04.685Z,1004.80
2023-01-11T00:06:04.620Z,1004.82
2023-01-11T00:07:04.975Z,1004.76
2023-01-11T00:08:04.597Z,1004.85
2023-01-11T00:09:04.596Z,1004.83
2023-01-11T00:10:04.588Z,1004.74
2023-01-11T00:11:04.582Z,1004.82
2023-01-11T00:12:04.569Z,1004.78
2023-01-11T00:13:04.637Z,1004.73
2023-01-11T00:14:04.515Z,1004.83
2023-01-11T00:15:04.562Z,1004.73
2023-01-11T00:16:04.507Z,1004.81
2023-01-11T00:17:04.504Z,1004.69
2023-01-11T00:18:04.480Z,1004.64
2023-01-11T00:19:04.547Z,1004.61
2023-01-11T00:20:04.437Z,1004.65
2023-01-11T00:21:04.445Z,1004.66
2023-01-11T00:22:04.430Z,1004.67
2023-01-11T00:23:04.431Z,1004.66
2023-01-11T00:24:04.404Z,1004.66
2023-01-11T00:25:04.568Z,1004.60
2023-01-11T00:26:04.361Z,1004.63
2023-01-11T00:27:04.389Z,1004.66
2023-01-11T00:28:04.331Z,1004.57
2023-01-11T00:29:04.343Z,1004.48
2023-01-11T00:30:04.332Z,1004.43
2023-01-11T00:31:04.418Z,1004.30
2023-01-11T00:32:04.320Z,1004.32
2023-01-11T00:33:04.326Z,1004.35
2023-01-11T00:34:04.253Z,1004.38
2023-01-11T00:35:04.269Z,1004.36
2023-01-11T00:36:04.242Z,1004.27
2023-01-11T00:37:04.413Z,1004.34
2023-01-11T00:38:04.201Z,1004.12
2023-01-11T00:39:04.256Z,1004.09
2023-01-11T00:40:04.175Z,1004.31
2023-01-11T00:41:04.184Z,1004.32
2023-01-11T00:42:04.176Z,1004.36
2023-01-11T00:43:04.278Z,1004.31
2023-01-11T00:44:04.152Z,1004.38
2023-01-11T00:45:04.157Z,1004.44
2023-01-11T00:46:04.137Z,1004.48
2023-01-11T00:47:04.152Z,1004.41
2023-01-11T00:48:04.072Z,1004.46
2023-01-11T00:49:04.124Z,1004.37
2023-01-11T00:50:04.058Z,1004.29
2023-01-11T00:51:04.041Z,1004.27
2023-01-11T00:52:04.067Z,1004.23
2023-01-11T00:53:04.024Z,1004.35
2023-01-11T00:54:04.008Z,1004.33
2023-01-11T00:55:04.030Z,1004.30
2023-01-11T00:56:04.013Z,1004.16
2023-01-11T00:57:04.012Z,1004.21
2023-01-11T00:58:03.975Z,1004.17
2023-01-11T00:59:03.953Z,1004.24
2023-01-11T01:00:03.947Z,1004.17
2023-01-11T01:01:04.071Z,1004.22
2023-01-11T01:02:03.973Z,1004.20
2023-01-11T01:03:03.878Z,1004.13
2023-01-11T01:04:03.926Z,1004.15
2023-01-11T01:05:03.878Z,1004.17
2023-01-11T01:06:03.871Z,1004.04
2023-01-11T01:07:03.946Z,1004.18
2023-01-11T01:08:03.875Z,1004.17
2023-01-11T01:09:03.827Z,1004.10
2023-01-11T01:10:03.825Z,1004.07
2023-01-11T01:11:03.803Z,1004.08
2023-01-11T01:12:03.781Z,1004.06
2023-01-11T01:13:03.783Z,1004.07
2023-01-11T01:14:03.786Z,1004.11
2023-01-11T01:15:03.726Z,1004.08
2023-01-11T01:16:03.830Z,1004.11
2023-01-11T01:17:03.766Z,1004.13
2023-01-11T01:18:03.745Z,1003.97
2023-01-11T01:19:03.823Z,1004.07
2023-01-11T01:20:03.699Z,1003.98
2023-01-11T01:21:03.654Z,1004.03
2023-01-11T01:22:03.688Z,1004.02
2023-01-11T01:23:03.656Z,1004.00
2023-01-11T01:24:03.639Z,1004.00
2023-01-11T01:25:03.613Z,1003.95
2023-01-11T01:26:03.646Z,1003.85
2023-01-11T01:27:03.582Z,1003.89
2023-01-11T01:28:03.601Z,1003.86
2023-01-11T01:29:03.572Z,1003.84
2023-01-11T01:30:03.541Z,1003.88
2023-01-11T01:31:03.607Z,1003.89
2023-01-11T01:32:03.527Z,1003.89
2023-01-11T01:33:03.485Z,1003.80
2023-01-11T01:34:03.528Z,1003.88
2023-01-11T01:35:03.490Z,1003.90
2023-01-11T01:36:03.497Z,1003.85
2023-01-11T01:37:03.501Z,1003.85
2023-01-11T01:38:03.448Z,1003.90
2023-01-11T01:39:03.409Z,1003.90
2023-01-11T01:40:03.447Z,1003.87
2023-01-11T01:41:03.415Z,1003.84
2023-01-11T01:42:03.388Z,1003.81
2023-01-11T01:43:03.504Z,1003.81
2023-01-11T01:44:03.371Z,1003.82
2023-01-11T01:45:03.476Z,1003.74
2023-01-11T01:46:03.421Z,1003.80
2023-01-11T01:47:03.301Z,1003.77
2023-01-11T01:48:03.336Z,1003.81
2023-01-11T01:49:03.349Z,1003.78
2023-01-11T01:50:03.310Z,1003.74
2023-01-11T01:51:03.273Z,1003.68
2023-01-11T01:52:03.264Z,1003.61
2023-01-11T01:53:03.219Z,1003.68
2023-01-11T01:54:03.276Z,1003.66
2023-01-11T01:55:03.309Z,1003.64
2023-01-11T01:56:03.241Z,1003.63
2023-01-11T01:57:03.220Z,1003.67
2023-01-11T01:58:03.195Z,1003.58
2023-01-11T01:59:03.174Z,1003.52
2023-01-11T02:00:03.166Z,1003.53
2023-01-11T02:01:03.238Z,1003.54
2023-01-11T02:02:03.219Z,1003.60
2023-01-11T02:03:03.147Z,1003.56
2023-01-11T02:04:03.134Z,1003.47
2023-01-11T02:05:03.101Z,1003.52
2023-01-11T02:06:03.084Z,1003.52
2023-01-11T02:07:03.176Z,1003.51
2023-01-11T02:08:03.055Z,1003.54
2023-01-11T02:09:03.009Z,1003.55
2023-01-11T02:10:03.055Z,1003.55
2023-01-11T02:11:03.021Z,1003.54
2023-01-11T02:12:03.018Z,1003.42
2023-01-11T02:13:02.988Z,1003.47
2023-01-11T02:14:03.014Z,1003.49
2023-01-11T02:15:02.930Z,1003.51
2023-01-11T02:16:02.998Z,1003.47
2023-01-11T02:17:02.947Z,1003.42
2023-01-11T02:18:02.917Z,1003.37
2023-01-11T02:19:03.025Z,1003.38
2023-01-11T02:20:02.904Z,1003.34
2023-01-11T02:21:02.856Z,1003.36
2023-01-11T02:22:02.905Z,1003.36
2023-01-11T02:23:02.835Z,1003.36
2023-01-11T02:24:02.867Z,1003.32
2023-01-11T02:25:02.958Z,1003.33
2023-01-11T02:26:02.810Z,1003.31
2023-01-11T02:27:02.789Z,1003.39
2023-01-11T02:28:02.816Z,1003.28
2023-01-11T02:29:02.787Z,1003.25
2023-01-11T02:30:02.783Z,1003.25
2023-01-11T02:31:02.821Z,1003.29
2023-01-11T02:32:02.733Z,1003.23
2023-01-11T02:33:02.755Z,1003.17
2023-01-11T02:34:02.742Z,1003.27
2023-01-11T02:35:02.680Z,1003.24
2023-01-11T02:36:02.727Z,1003.26
2023-01-11T02:37:02.710Z,1003.20
2023-01-11T02:38:02.656Z,1003.22
2023-01-11T02:39:02.652Z,1003.21
2023-01-11T02:40:02.642Z,1003.21
2023-01-11T02:41:02.595Z,1003.22
2023-01-11T02:42:02.642Z,1003.10
2023-01-11T02:43:02.620Z,1003.13
2023-01-11T02:44:02.589Z,1003.12
2023-01-11T02:45:02.545Z,1003.18
2023-01-11T02:46:02.587Z,1003.19
2023-01-11T02:47:02.516Z,1003.13
2023-01-11T02:48:02.562Z,1003.16
2023-01-11T02:49:02.558Z,1003.11
2023-01-11T02:50:02.515Z,1003.11
2023-01-11T02:51:02.491Z,1003.07
2023-01-11T02:52:02.484Z,1003.13
2023-01-11T02:53:02.444Z,1003.17
2023-01-11T02:54:02.488Z,1003.17
2023-01-11T02:55:02.459Z,1003.05
2023-01-11T02:56:02.458Z,1003.20
2023-01-11T02:57:02.409Z,1003.16
2023-01-11T02:58:02.427Z,1003.06
2023-01-11T02:59:02.387Z,1003.14
2023-01-11T03:00:02.377Z,1003.06
2023-01-11T03:01:02.390Z,1003.11
2023-01-11T03:02:02.551Z,1003.09
2023-01-11T03:03:02.349Z,1003.03
2023-01-11T03:04:02.349Z,1003.10
2023-01-11T03:05:02.316Z,1003.09
2023-01-11T03:06:02.312Z,1003.08
2023-01-11T03:07:02.367Z,1003.01
2023-01-11T03:08:02.262Z,1002.94
2023-01-11T03:09:02.244Z,1002.91
2023-01-11T03:10:02.571Z,1002.91
2023-01-11T03:11:02.204Z,1002.89
2023-01-11T03:12:02.242Z,1002.97
2023-01-11T03:13:03.194Z,1002.92
2023-01-11T03:14:02.193Z,1002.93
2023-01-11T03:15:02.183Z,1002.84
2023-01-11T03:17:12.290Z,1002.84
2023-01-11T03:18:12.412Z,1002.84
2023-01-11T03:19:12.224Z,1002.93
2023-01-11T03:20:12.279Z,1002.87
2023-01-11T03:21:12.212Z,1002.82
2023-01-11T03:22:12.319Z,1002.80
2023-01-11T03:23:12.260Z,1002.84
2023-01-11T03:24:12.337Z,1002.79
2023-01-11T03:25:12.192Z,1002.83
2023-01-11T03:26:12.213Z,1002.73
2023-01-11T03:27:12.172Z,1002.85
2023-01-11T03:28:12.203Z,1002.76
2023-01-11T03:29:12.114Z,1002.74
2023-01-11T03:30:12.151Z,1002.72
2023-01-11T03:31:12.134Z,1002.74
2023-01-11T03:32:12.133Z,1002.74
2023-01-11T03:33:12.060Z,1002.71
2023-01-11T03:34:12.074Z,1002.67
2023-01-11T03:35:12.078Z,1002.57
2023-01-11T03:36:12.101Z,1002.68
2023-01-11T03:37:12.049Z,1002.70
2023-01-11T03:38:12.055Z,1002.69
2023-01-11T03:39:11.983Z,1002.66
2023-01-11T03:40:12.016Z,1002.68
2023-01-11T03:41:11.959Z,1002.63
2023-01-11T03:42:12.000Z,1002.60
2023-01-11T03:43:11.959Z,1002.68
2023-01-11T03:44:11.940Z,1002.63
2023-01-11T03:45:11.935Z,1002.57
2023-01-11T03:46:11.952Z,1002.56
2023-01-11T03:47:11.884Z,1002.50
2023-01-11T03:48:12.006Z,1002.57
2023-01-11T03:49:11.869Z,1002.62
2023-01-11T03:50:11.900Z,1002.62
2023-01-11T03:51:11.822Z,1002.62
2023-01-11T03:52:11.857Z,1002.60
2023-01-11T03:53:11.805Z,1002.62
2023-01-11T03:54:11.933Z,1002.60
2023-01-11T03:55:11.803Z,1002.62
2023-01-11T03:56:11.808Z,1002.61
2023-01-11T03:57:11.776Z,1002.65
2023-01-11T03:58:11.793Z,1002.65
2023-01-11T03:59:11.713Z,1002.66
2023-01-11T04:00:11.798Z,1002.65
2023-01-11T04:01:11.725Z,1002.61
2023-01-11T04:02:11.697Z,1002.61
2023-01-11T04:03:11.685Z,1002.62
2023-01-11T04:04:11.768Z,1002.64
2023-01-11T04:05:11.662Z,1002.60
2023-01-11T04:06:11.801Z,1002.62
2023-01-11T04:07:11.607Z,1002.66
2023-01-11T04:08:11.693Z,1002.60
2023-01-11T04:09:11.576Z,1002.58
2023-01-11T04:10:11.593Z,1002.60
2023-01-11T04:11:11.574Z,1002.58
2023-01-11T04:12:11.676Z,1002.57
2023-01-11T04:13:11.547Z,1002.55
2023-01-11T04:14:11.547Z,1002.57
2023-01-11T04:15:11.492Z,1002.55
2023-01-11T04:16:11.562Z,1002.52
2023-01-11T04:17:11.484Z,1002.58
2023-01-11T04:18:11.523Z,1002.54
2023-01-11T04:19:11.490Z,1002.57
2023-01-11T04:20:11.497Z,1002.57
2023-01-11T04:21:11.418Z,1002.54
2023-01-11T04:22:11.461Z,1002.53
2023-01-11T04:23:11.418Z,1002.50
2023-01-11T04:24:11.421Z,1002.46
2023-01-11T04:25:11.391Z,1002.49
2023-01-11T04:26:11.414Z,1002.47
2023-01-11T04:27:11.344Z,1002.45
2023-01-11T04:28:11.377Z,1002.52
2023-01-11T04:29:11.313Z,1002.52
2023-01-11T04:30:11.351Z,1002.51
2023-01-11T04:31:11.351Z,1002.53
2023-01-11T04:32:11.300Z,1002.50
2023-01-11T04:33:11.273Z,1002.54
2023-01-11T04:34:11.292Z,1002.50
2023-01-11T04:35:11.227Z,1002.45
2023-01-11T04:36:11.276Z,1002.46
2023-01-11T04:37:11.225Z,1002.51
2023-01-11T04:38:11.256Z,1002.47
2023-01-11T04:39:11.179Z,1002.53
2023-01-11T04:40:11.217Z,1002.57
2023-01-11T04:41:11.162Z,1002.51
2023-01-11T04:42:11.281Z,1002.51
2023-01-11T04:43:11.143Z,1002.48
2023-01-11T04:44:11.122Z,1002.47
2023-01-11T04:45:11.102Z,1002.51
2023-01-11T04:46:11.123Z,1002.42
2023-01-11T04:47:11.051Z,1002.49
2023-01-11T04:48:11.200Z,1002.49
2023-01-11T04:49:11.028Z,1002.51
2023-01-11T04:50:11.123Z,1002.58
2023-01-11T04:51:11.030Z,1002.52
2023-01-11T04:52:11.036Z,1002.53
2023-01-11T04:53:10.978Z,1002.50
2023-01-11T04:54:11.114Z,1002.51
2023-01-11T04:55:10.973Z,1002.54
2023-01-11T04:56:10.961Z,1002.51
2023-01-11T04:57:10.958Z,1002.50
2023-01-11T04:58:10.984Z,1002.52
2023-01-11T04:59:10.901Z,1002.58
2023-01-11T05:00:11.029Z,1002.57
2023-01-11T05:01:10.975Z,1002.54
2023-01-11T05:02:10.885Z,1002.59
2023-01-11T05:03:10.866Z,1002.58
2023-01-11T05:04:13.326Z,1002.59
2023-01-11T05:05:10.840Z,1002.58
2023-01-11T05:06:10.881Z,1002.57
2023-01-11T05:07:10.806Z,1002.54
2023-01-11T05:08:10.782Z,1002.58
2023-01-11T05:09:10.832Z,1002.59
2023-01-11T05:10:10.791Z,1002.58
2023-01-11T05:11:10.754Z,1002.64
2023-01-11T05:12:10.792Z,1002.60
2023-01-11T05:13:10.734Z,1002.58
2023-01-11T05:14:10.694Z,1002.56
2023-01-11T05:15:10.741Z,1002.55
2023-01-11T05:16:10.733Z,1002.58
2023-01-11T05:17:10.703Z,1002.55
2023-01-11T05:18:10.703Z,1002.52
2023-01-11T05:19:10.638Z,1002.61
2023-01-11T05:20:10.631Z,1002.52
2023-01-11T05:21:10.615Z,1002.50
2023-01-11T05:22:10.594Z,1002.51
2023-01-11T05:23:10.613Z,1002.54
2023-01-11T05:24:10.713Z,1002.49
2023-01-11T05:25:10.562Z,1002.52
2023-01-11T05:26:10.549Z,1002.59
2023-01-11T05:27:11.280Z,1002.57
2023-01-11T05:28:10.509Z,1002.54
2023-01-11T05:29:10.546Z,1002.60
2023-01-11T05:30:10.615Z,1002.57
2023-01-11T05:31:10.499Z,1002.56
2023-01-11T05:32:11.355Z,1002.59
2023-01-11T05:33:10.472Z,1002.64
2023-01-11T05:34:10.732Z,1002.65
2023-01-11T05:35:10.473Z,1002.65
2023-01-11T05:36:10.453Z,1002.68
2023-01-11T05:37:10.438Z,1002.67
2023-01-11T05:38:10.389Z,1002.71
2023-01-11T05:39:10.691Z,1002.64
2023-01-11T05:40:10.341Z,1002.64
2023-01-11T05:41:10.399Z,1002.59
2023-01-11T05:42:10.483Z,1002.65
2023-01-11T05:43:10.331Z,1002.66
2023-01-11T05:44:10.303Z,1002.68
2023-01-11T05:45:10.296Z,1002.67
2023-01-11T05:46:10.308Z,1002.73
2023-01-11T05:47:10.304Z,1002.69
2023-01-11T05:48:10.410Z,1002.69
2023-01-11T05:49:10.313Z,1002.64
2023-01-11T05:50:10.247Z,1002.67
2023-01-11T05:51:10.267Z,1002.66
2023-01-11T05:52:10.213Z,1002.72
2023-01-11T05:53:10.216Z,1002.63
2023-01-11T05:54:10.310Z,1002.68
2023-01-11T05:55:10.233Z,1002.74
2023-01-11T05:56:10.198Z,1002.69
2023-01-11T05:57:10.166Z,1002.67
2023-01-11T05:58:10.133Z,1002.60
2023-01-11T05:59:10.132Z,1002.68
2023-01-11T06:00:10.189Z,1002.59
2023-01-11T06:01:10.148Z,1002.58
2023-01-11T06:02:10.164Z,1002.60
2023-01-11T06:03:10.131Z,1002.63
2023-01-11T06:04:10.068Z,1002.64
2023-01-11T06:05:10.900Z,1002.66
2023-01-11T06:06:10.111Z,1002.65
2023-01-11T06:07:10.062Z,1002.60
2023-01-11T06:08:09.957Z,1002.67
2023-01-11T06:09:10.009Z,1002.60
2023-01-11T06:10:09.959Z,1002.60
2023-01-11T06:11:09.952Z,1002.65
2023-01-11T06:12:10.320Z,1002.55
2023-01-11T06:13:09.932Z,1002.67
2023-01-11T06:14:09.899Z,1002.63
2023-01-11T06:15:09.940Z,1002.62
2023-01-11T06:16:09.961Z,1002.65
2023-01-11T06:17:09.901Z,1002.66
2023-01-11T06:18:10.020Z,1002.65
2023-01-11T06:19:09.839Z,1002.66
2023-01-11T06:20:09.820Z,1002.66
2023-01-11T06:21:09.824Z,1002.62
2023-01-11T06:22:09.814Z,1002.62
2023-01-11T06:23:09.831Z,1002.64
2023-01-11T06:24:09.873Z,1002.67
2023-01-11T06:25:09.796Z,1002.69
2023-01-11T06:26:09.742Z,1002.64
2023-01-11T06:27:09.737Z,1002.62
2023-01-11T06:28:09.691Z,1002.61
2023-01-11T06:29:09.736Z,1002.62
2023-01-11T06:30:09.808Z,1002.64
2023-01-11T06:31:09.740Z,1002.69
2023-01-11T06:32:09.680Z,1002.64
2023-01-11T06:33:09.658Z,1002.66
2023-01-11T06:34:09.609Z,1002.70
2023-01-11T06:35:09.655Z,1002.79
2023-01-11T06:36:09.706Z,1002.79
2023-01-11T06:37:09.608Z,1002.78
2023-01-11T06:38:09.576Z,1002.82
2023-01-11T06:39:09.571Z,1002.87
2023-01-11T06:40:09.547Z,1002.84
2023-01-11T06:41:09.573Z,1002.86
2023-01-11T06:42:09.593Z,1002.83
2023-01-11T06:43:09.540Z,1002.84
2023-01-11T06:44:09.505Z,1002.87
2023-01-11T06:45:09.535Z,1002.84
2023-01-11T06:46:09.466Z,1002.88
2023-01-11T06:47:09.505Z,1002.84
2023-01-11T06:48:09.445Z,1002.89
2023-01-11T06:49:09.453Z,1002.84
2023-01-11T06:50:09.420Z,1002.89
2023-01-11T06:51:09.417Z,1002.94
2023-01-11T06:52:09.407Z,1002.85
2023-01-11T06:53:09.373Z,1002.89
2023-01-11T06:54:09.437Z,1002.85
2023-01-11T06:55:09.381Z,1002.90
2023-01-11T06:56:09.304Z,1002.92
2023-01-11T06:57:09.353Z,1002.92
2023-01-11T06:58:09.313Z,1002.90
2023-01-11T06:59:09.299Z,1002.88
2023-01-11T07:00:09.288Z,1002.87
2023-01-11T07:01:09.428Z,1002.85
2023-01-11T07:02:09.244Z,1002.90
2023-01-11T07:03:09.224Z,1002.86
2023-01-11T07:04:09.233Z,1002.88
2023-01-11T07:05:09.254Z,1002.95
2023-01-11T07:06:09.289Z,1002.89
2023-01-11T07:07:09.251Z,1002.91
2023-01-11T07:08:09.149Z,1002.94
2023-01-11T07:09:09.228Z,1002.96
2023-01-11T07:10:09.134Z,1003.02
2023-01-11T07:11:09.168Z,1002.95
2023-01-11T07:12:09.153Z,1002.98
2023-01-11T07:13:09.093Z,1002.97
2023-01-11T07:14:09.053Z,1002.94
2023-01-11T07:15:09.091Z,1002.96
2023-01-11T07:16:09.088Z,1002.94
2023-01-11T07:17:09.078Z,1002.92
2023-01-11T07:18:09.039Z,1002.97
2023-01-11T07:19:09.006Z,1002.91
2023-01-11T07:20:09.001Z,1002.96
2023-01-11T07:21:09.006Z,1002.90
2023-01-11T07:22:08.957Z,1002.89
2023-01-11T07:23:08.996Z,1002.84
2023-01-11T07:24:08.941Z,1002.88
2023-01-11T07:25:08.963Z,1002.90
2023-01-11T07:26:08.986Z,1002.89
2023-01-11T07:27:08.896Z,1002.87
2023-01-11T07:28:08.917Z,1002.83
2023-01-11T07:29:08.882Z,1002.80
2023-01-11T07:30:09.907Z,1002.85
2023-01-11T07:31:08.912Z,1002.91
2023-01-11T07:32:08.835Z,1002.93
2023-01-11T07:33:08.820Z,1002.94
2023-01-11T07:34:08.790Z,1002.97
2023-01-11T07:35:08.805Z,1002.99
2023-01-11T07:36:08.870Z,1003.04
2023-01-11T07:37:08.803Z,1003.04
2023-01-11T07:38:09.756Z,1003.05
2023-01-11T07:39:08.739Z,1003.12
2023-01-11T07:40:08.708Z,1003.09
2023-01-11T07:41:08.700Z,1003.08
2023-01-11T07:42:08.719Z,1003.11
2023-01-11T07:43:08.726Z,1003.13
2023-01-11T07:44:08.652Z,1003.14
2023-01-11T07:45:08.683Z,1003.13
2023-01-11T07:46:08.754Z,1003.09
2023-01-11T07:47:08.700Z,1003.12
2023-01-11T07:48:08.692Z,1003.08
2023-01-11T07:49:08.635Z,1003.14
2023-01-11T07:50:08.609Z,1003.17
2023-01-11T07:51:08.584Z,1003.14
2023-01-11T07:52:08.555Z,1003.17
2023-01-11T07:53:08.586Z,1003.19
2023-01-11T07:54:08.532Z,1003.16
2023-01-11T07:55:08.546Z,1003.14
2023-01-11T07:56:08.482Z,1003.17
2023-01-11T07:57:08.522Z,1003.18
2023-01-11T07:58:08.503Z,1003.17
2023-01-11T07:59:08.470Z,1003.16
2023-01-11T08:00:08.574Z,1003.20
2023-01-11T08:01:08.430Z,1003.23
2023-01-11T08:02:08.402Z,1003.17
2023-01-11T08:03:08.558Z,1003.16
2023-01-11T08:04:08.395Z,1003.22
2023-01-11T08:05:08.393Z,1003.31
2023-01-11T08:06:08.361Z,1003.33
2023-01-11T08:07:08.391Z,1003.37
2023-01-11T08:08:08.330Z,1003.41
2023-01-11T08:09:08.402Z,1003.45
2023-01-11T08:10:08.324Z,1003.38
2023-01-11T08:11:08.321Z,1003.42
2023-01-11T08:12:08.325Z,1003.45
2023-01-11T08:13:08.281Z,1003.43
2023-01-11T08:14:08.229Z,1003.41
2023-01-11T08:15:08.284Z,1003.35
2023-01-11T08:16:08.258Z,1003.39
2023-01-11T08:17:08.259Z,1003.43
2023-01-11T08:18:08.301Z,1003.43
2023-01-11T08:19:08.200Z,1003.47
2023-01-11T08:20:08.178Z,1003.49
2023-01-11T08:21:08.184Z,1003.51
2023-01-11T08:22:08.122Z,1003.40
2023-01-11T08:23:08.171Z,1003.48
2023-01-11T08:24:08.219Z,1003.43
2023-01-11T08:25:08.133Z,1003.49
2023-01-11T08:26:08.093Z,1003.49
2023-01-11T08:27:08.142Z,1003.51
2023-01-11T08:28:08.077Z,1003.50
2023-01-11T08:29:08.057Z,1003.54
2023-01-11T08:30:08.060Z,1003.51
2023-01-11T08:31:08.067Z,1003.54
2023-01-11T08:32:07.974Z,1003.58
2023-01-11T08:33:08.166Z,1003.59
2023-01-11T08:34:07.966Z,1003.56
2023-01-11T08:35:07.961Z,1003.64
2023-01-11T08:36:08.021Z,1003.57
2023-01-11T08:37:07.956Z,1003.59
2023-01-11T08:38:07.916Z,1003.57
2023-01-11T08:39:07.915Z,1003.61
2023-01-11T08:40:07.887Z,1003.58
2023-01-11T08:41:07.869Z,1003.58
2023-01-11T08:42:07.932Z,1003.55
2023-01-11T08:43:07.879Z,1003.57
2023-01-11T08:44:07.802Z,1003.62
2023-01-11T08:45:07.853Z,1003.67
2023-01-11T08:46:07.826Z,1003.69
2023-01-11T08:47:07.792Z,1003.65
2023-01-11T08:48:07.880Z,1003.70
2023-01-11T08:49:07.763Z,1003.67
2023-01-11T08:50:07.723Z,1003.69
2023-01-11T08:51:07.805Z,1003.65
2023-01-11T08:52:07.721Z,1003.63
2023-01-11T08:53:07.707Z,1003.65
2023-01-11T08:54:07.695Z,1003.70
2023-01-11T08:55:07.703Z,1003.66
2023-01-11T08:56:07.640Z,1003.63
2023-01-11T08:57:07.694Z,1003.62
2023-01-11T08:58:07.635Z,1003.75
2023-01-11T08:59:07.630Z,1003.73
2023-01-11T09:00:07.721Z,1003.75
2023-01-11T09:01:07.598Z,1003.77
2023-01-11T09:02:07.548Z,1003.77
2023-01-11T09:03:07.667Z,1003.82
2023-01-11T09:04:19.377Z,1003.79
2023-01-11T09:05:08.601Z,1003.75
2023-01-11T09:06:07.553Z,1003.79
2023-01-11T09:07:07.512Z,1003.75
2023-01-11T09:08:07.468Z,1003.70
2023-01-11T09:09:07.546Z,1003.65
2023-01-11T09:10:07.470Z,1003.65
2023-01-11T09:11:07.573Z,1003.67
2023-01-11T09:12:07.452Z,1003.70
2023-01-11T09:13:07.447Z,1003.63
2023-01-11T09:14:07.394Z,1003.69
2023-01-11T09:15:07.439Z,1003.67
2023-01-11T09:16:07.426Z,1003.71
2023-01-11T09:17:07.448Z,1003.70
2023-01-11T09:18:08.209Z,1003.73
2023-01-11T09:19:07.353Z,1003.75
2023-01-11T09:20:07.346Z,1003.79
2023-01-11T09:21:07.322Z,1003.83
2023-01-11T09:22:07.283Z,1003.83
2023-01-11T09:23:07.359Z,1003.82
2023-01-11T09:24:07.284Z,1003.85
2023-01-11T09:25:11.401Z,1003.84
2023-01-11T09:26:07.281Z,1003.87
2023-01-11T09:27:07.249Z,1003.92
2023-01-11T09:28:07.252Z,1003.91
2023-01-11T09:29:07.269Z,1003.92
2023-01-11T09:30:07.209Z,1003.94
2023-01-11T09:31:07.237Z,1003.96
2023-01-11T09:32:07.171Z,1003.95
2023-01-11T09:33:07.156Z,1004.00
2023-01-11T09:34:07.223Z,1004.00
2023-01-11T09:35:07.217Z,1004.02
2023-01-11T09:36:07.146Z,1003.99
2023-01-11T09:37:07.302Z,1004.02
2023-01-11T09:38:07.090Z,1004.04
2023-01-11T09:39:07.074Z,1003.99
2023-01-11T09:40:07.086Z,1004.01
2023-01-11T09:41:07.037Z,1004.01
2023-01-11T09:42:07.028Z,1004.08
2023-01-11T09:43:07.089Z,1004.06
2023-01-11T09:44:07.017Z,1004.10
2023-01-11T09:45:06.997Z,1004.17
2023-01-11T09:46:08.690Z,1004.20
2023-01-11T09:47:07.052Z,1004.25
2023-01-11T09:48:06.987Z,1004.25
2023-01-11T09:49:06.906Z,1004.25
2023-01-11T09:50:06.924Z,1004.22
2023-01-11T09:51:06.931Z,1004.30
2023-01-11T09:52:06.893Z,1004.31
2023-01-11T09:53:06.910Z,1004.30
2023-01-11T09:54:06.897Z,1004.33
2023-01-11T09:55:06.824Z,1004.28
2023-01-11T09:56:06.843Z,1004.29
2023-01-11T09:57:06.843Z,1004.28
2023-01-11T09:58:06.848Z,1004.32
2023-01-11T09:59:06.906Z,1004.31
2023-01-11T10:00:06.810Z,1004.37
2023-01-11T10:01:06.828Z,1004.34
2023-01-11T10:02:06.773Z,1004.34
2023-01-11T10:03:06.744Z,1004.39
2023-01-11T10:04:06.909Z,1004.34
2023-01-11T10:05:06.887Z,1004.38
2023-01-11T10:06:06.839Z,1004.32
2023-01-11T10:07:06.757Z,1004.31
2023-01-11T10:18:22.582Z,1004.22
2023-01-11T10:18:22.775Z,1004.30
2023-01-11T10:18:29.328Z,1004.31
2023-01-11T10:18:38.492Z,1004.23
2023-01-11T10:18:38.492Z,1004.18
2023-01-11T10:20:07.600Z,1004.12
2023-01-11T10:21:06.493Z,1004.10
2023-01-11T10:22:06.616Z,1004.08
2023-01-11T10:23:06.478Z,1004.11
2023-01-11T10:24:06.485Z,1004.12
2023-01-11T10:25:06.474Z,1004.16
2023-01-11T10:26:06.463Z,1004.19
2023-01-11T10:27:06.440Z,1004.22
2023-01-11T10:28:06.553Z,1004.23
2023-01-11T10:29:06.434Z,1004.27
2023-01-11T10:30:06.411Z,1004.31
2023-01-11T10:31:06.408Z,1004.34
2023-01-11T10:32:06.382Z,1004.34
2023-01-11T10:33:06.345Z,1004.36
2023-01-11T10:34:06.402Z,1004.39
2023-01-11T10:35:06.307Z,1004.37
2023-01-11T10:36:06.331Z,1004.38
2023-01-11T10:37:06.293Z,1004.42
2023-01-11T10:38:06.287Z,1004.46
2023-01-11T10:39:06.325Z,1004.47
2023-01-11T10:40:06.306Z,1004.45
2023-01-11T10:41:06.248Z,1004.50
2023-01-11T10:42:06.267Z,1004.45
2023-01-11T10:43:06.186Z,1004.47
2023-01-11T10:44:06.198Z,1004.48
2023-01-11T10:45:06.238Z,1004.43
2023-01-11T10:47:06.122Z,1004.42
2023-01-11T10:48:06.161Z,1004.41
2023-01-11T10:49:06.406Z,1004.44
2023-01-11T10:50:06.617Z,1004.47
2023-01-11T10:51:06.107Z,1004.46
2023-01-11T10:52:06.195Z,1004.43
2023-01-11T10:53:06.063Z,1004.50
2023-01-11T10:55:06.010Z,1004.39
2023-01-11T10:56:06.061Z,1004.43
2023-01-11T10:57:07.213Z,1004.40
2023-01-11T10:58:06.023Z,1004.47
2023-01-11T10:59:05.992Z,1004.41
2023-01-11T11:00:06.009Z,1004.50
2023-01-11T11:01:05.966Z,1004.46
2023-01-11T11:02:06.006Z,1004.45
2023-01-11T11:03:05.922Z,1004.45
2023-01-11T11:04:06.026Z,1004.49
2023-01-11T11:05:05.903Z,1004.48
2023-01-11T11:06:05.915Z,1004.49
2023-01-11T11:07:05.845Z,1004.50
2023-01-11T11:08:05.895Z,1004.47
2023-01-11T11:09:05.816Z,1004.50
2023-01-11T11:10:05.914Z,1004.48
2023-01-11T11:11:05.834Z,1004.47
2023-01-11T11:12:05.807Z,1004.40
2023-01-11T11:13:05.793Z,1004.38
2023-01-11T11:14:05.806Z,1004.45
2023-01-11T11:15:05.740Z,1004.42
2023-01-11T11:16:05.870Z,1004.50
2023-01-11T11:17:05.749Z,1004.49
2023-01-11T11:18:05.755Z,1004.46
2023-01-11T11:19:05.679Z,1004.55
2023-01-11T11:20:05.726Z,1004.56
2023-01-11T11:21:05.653Z,1004.55
2023-01-11T11:22:05.787Z,1004.57
2023-01-11T11:23:05.656Z,1004.60
2023-01-11T11:24:05.643Z,1004.58
2023-01-11T11:25:05.635Z,1004.62
2023-01-11T11:26:05.639Z,1004.66
2023-01-11T11:27:05.678Z,1004.69
2023-01-11T11:28:05.646Z,1004.76
2023-01-11T11:29:05.550Z,1004.78
2023-01-11T11:30:05.597Z,1004.74
2023-01-11T11:31:05.541Z,1004.76
2023-01-11T11:32:05.535Z,1004.71
2023-01-11T11:33:05.524Z,1004.72
2023-01-11T11:34:05.625Z,1004.74
2023-01-11T11:35:05.468Z,1004.67
2023-01-11T11:36:05.512Z,1004.70
2023-01-11T11:37:05.440Z,1004.69
2023-01-11T11:38:05.506Z,1004.69
2023-01-11T11:39:05.430Z,1004.70
2023-01-11T11:40:05.468Z,1004.73
2023-01-11T11:41:05.428Z,1004.74
2023-01-11T11:42:05.429Z,1004.70
2023-01-11T11:43:05.359Z,1004.76
2023-01-11T11:44:05.393Z,1004.70
2023-01-11T11:45:05.357Z,1004.73
2023-01-11T11:46:05.528Z,1004.74
2023-01-11T11:47:05.322Z,1004.75
2023-01-11T11:48:05.348Z,1004.79
2023-01-11T11:49:05.295Z,1004.86
2023-01-11T11:50:05.321Z,1004.87
2023-01-11T11:51:05.275Z,1004.87
2023-01-11T11:52:05.299Z,1004.85
2023-01-11T11:53:05.250Z,1004.84
2023-01-11T11:54:05.255Z,1004.77
2023-01-11T11:55:05.191Z,1004.81
2023-01-11T11:56:05.235Z,1004.79
2023-01-11T11:57:05.161Z,1004.96
2023-01-11T11:58:05.214Z,1004.90
2023-01-11T11:59:05.175Z,1004.91
2023-01-11T12:00:05.150Z,1004.85
2023-01-11T12:01:05.141Z,1004.77
2023-01-11T12:02:05.204Z,1004.80
2023-01-11T12:03:05.084Z,1004.83
2023-01-11T12:04:05.270Z,1004.80
2023-01-11T12:05:05.137Z,1004.77
2023-01-11T12:06:05.153Z,1004.73
2023-01-11T12:07:05.050Z,1004.82
2023-01-11T12:08:05.091Z,1004.78
2023-01-11T12:09:04.996Z,1004.75
2023-01-11T12:10:05.194Z,1004.82
2023-01-11T12:11:05.012Z,1004.82
2023-01-11T12:12:05.037Z,1004.85
2023-01-11T12:13:04.974Z,1004.82
2023-01-11T12:14:04.991Z,1004.86
2023-01-11T12:15:04.925Z,1004.81